sensor_id;sensor_type;location;lat;lon;timestamp;pressure;altitude;pressure_sealevel;temperature
12854;BMP180;6495;51.808;7.478;2022-10-17T00:01:07;101300.00;;;15.80
12854;BMP180;6495;51.808;7.478;2022-10-17T00:03:37;101290.00;;;15.80
12854;BMP180;6495;51.808;7.478;2022-10-17T00:06:09;101299.00;;;15.80
12854;BMP180;6495;51.808;7.478;2022-10-17T00:08:39;101300.00;;;15.80
12854;BMP180;6495;51.808;7.478;2022-10-17T00:11:16;101294.00;;;15.70
12854;BMP180;6495;51.808;7.478;2022-10-17T00:13:48;101297.00;;;15.70
12854;BMP180;6495;51.808;7.478;2022-10-17T00:16:23;101299.00;;;15.70
12854;BMP180;6495;51.808;7.478;2022-10-17T00:18:52;101297.00;;;15.70
12854;BMP180;6495;51.808;7.478;2022-10-17T00:21:21;101288.00;;;15.60
12854;BMP180;6495;51.808;7.478;2022-10-17T00:23:49;101286.00;;;15.60
12854;BMP180;6495;51.808;7.478;2022-10-17T00:26:21;101276.00;;;15.60
12854;BMP180;6495;51.808;7.478;2022-10-17T00:28:51;101280.00;;;15.50
12854;BMP180;6495;51.808;7.478;2022-10-17T00:31:21;101292.00;;;15.50
12854;BMP180;6495;51.808;7.478;2022-10-17T00:33:50;101290.00;;;15.50
12854;BMP180;6495;51.808;7.478;2022-10-17T00:36:21;101286.00;;;15.40
12854;BMP180;6495;51.808;7.478;2022-10-17T00:38:52;101283.00;;;15.40
12854;BMP180;6495;51.808;7.478;2022-10-17T00:41:26;101289.00;;;15.40
12854;BMP180;6495;51.808;7.478;2022-10-17T00:44:02;101288.00;;;15.30
12854;BMP180;6495;51.808;7.478;2022-10-17T00:46:34;101283.00;;;15.30
12854;BMP180;6495;51.808;7.478;2022-10-17T00:49:07;101275.00;;;15.30
12854;BMP180;6495;51.808;7.478;2022-10-17T00:51:40;101276.00;;;15.30
12854;BMP180;6495;51.808;7.478;2022-10-17T00:54:12;101277.00;;;15.30
12854;BMP180;6495;51.808;7.478;2022-10-17T00:56:43;101273.00;;;15.30
12854;BMP180;6495;51.808;7.478;2022-10-17T00:59:15;101278.00;;;15.30
12854;BMP180;6495;51.808;7.478;2022-10-17T01:01:59;101277.00;;;15.30
12854;BMP180;6495;51.808;7.478;2022-10-17T01:04:28;101272.00;;;15.30
12854;BMP180;6495;51.808;7.478;2022-10-17T01:06:56;101287.00;;;15.30
12854;BMP180;6495;51.808;7.478;2022-10-17T01:09:26;101273.00;;;15.30
12854;BMP180;6495;51.808;7.478;2022-10-17T01:12:05;101275.00;;;15.30
12854;BMP180;6495;51.808;7.478;2022-10-17T01:14:47;101272.00;;;15.30
12854;BMP180;6495;51.808;7.478;2022-10-17T01:17:28;101266.00;;;15.30
12854;BMP180;6495;51.808;7.478;2022-10-17T01:23:48;101261.00;;;15.30
12854;BMP180;6495;51.808;7.478;2022-10-17T01:26:36;101264.00;;;15.30
12854;BMP180;6495;51.808;7.478;2022-10-17T01:29:38;101257.00;;;15.30
12854;BMP180;6495;51.808;7.478;2022-10-17T01:32:20;101271.00;;;15.30
12854;BMP180;6495;51.808;7.478;2022-10-17T01:34:57;101267.00;;;15.30
12854;BMP180;6495;51.808;7.478;2022-10-17T01:37:31;101264.00;;;15.30
12854;BMP180;6495;51.808;7.478;2022-10-17T01:40:08;101255.00;;;15.30
12854;BMP180;6495;51.808;7.478;2022-10-17T01:42:47;101256.00;;;15.30
12854;BMP180;6495;51.808;7.478;2022-10-17T01:45:24;101246.00;;;15.30
12854;BMP180;6495;51.808;7.478;2022-10-17T01:47:59;101245.00;;;15.30
12854;BMP180;6495;51.808;7.478;2022-10-17T01:50:34;101244.00;;;15.30
12854;BMP180;6495;51.808;7.478;2022-10-17T01:53:10;101242.00;;;15.20
12854;BMP180;6495;51.808;7.478;2022-10-17T01:55:43;101236.00;;;15.20
12854;BMP180;6495;51.808;7.478;2022-10-17T01:58:19;101241.00;;;15.20
12854;BMP180;6495;51.808;7.478;2022-10-17T02:00:49;101235.00;;;15.10
12854;BMP180;6495;51.808;7.478;2022-10-17T02:03:21;101231.00;;;15.10
12854;BMP180;6495;51.808;7.478;2022-10-17T02:05:49;101228.00;;;15.10
12854;BMP180;6495;51.808;7.478;2022-10-17T02:08:25;101231.00;;;15.10
12854;BMP180;6495;51.808;7.478;2022-10-17T02:10:58;101228.00;;;15.10
12854;BMP180;6495;51.808;7.478;2022-10-17T02:13:41;101226.00;;;15.10
12854;BMP180;6495;51.808;7.478;2022-10-17T02:16:28;101224.00;;;15.10
12854;BMP180;6495;51.808;7.478;2022-10-17T02:19:27;101216.00;;;15.10
12854;BMP180;6495;51.808;7.478;2022-10-17T02:22:13;101213.00;;;15.10
12854;BMP180;6495;51.808;7.478;2022-10-17T02:24:51;101216.00;;;15.10
12854;BMP180;6495;51.808;7.478;2022-10-17T02:27:31;101218.00;;;15.10
12854;BMP180;6495;51.808;7.478;2022-10-17T02:30:07;101218.00;;;15.00
12854;BMP180;6495;51.808;7.478;2022-10-17T02:32:42;101223.00;;;15.00
12854;BMP180;6495;51.808;7.478;2022-10-17T02:35:19;101219.00;;;15.00
12854;BMP180;6495;51.808;7.478;2022-10-17T02:37:50;101221.00;;;15.00
12854;BMP180;6495;51.808;7.478;2022-10-17T02:40:21;101212.00;;;15.00
12854;BMP180;6495;51.808;7.478;2022-10-17T02:42:53;101211.00;;;15.00
12854;BMP180;6495;51.808;7.478;2022-10-17T02:45:26;101208.00;;;15.00
12854;BMP180;6495;51.808;7.478;2022-10-17T02:48:02;101217.00;;;15.00
12854;BMP180;6495;51.808;7.478;2022-10-17T02:50:44;101216.00;;;15.00
12854;BMP180;6495;51.808;7.478;2022-10-17T02:53:29;101222.00;;;15.00
12854;BMP180;6495;51.808;7.478;2022-10-17T02:56:07;101212.00;;;15.00
12854;BMP180;6495;51.808;7.478;2022-10-17T02:58:41;101211.00;;;15.10
12854;BMP180;6495;51.808;7.478;2022-10-17T03:01:11;101208.00;;;15.10
12854;BMP180;6495;51.808;7.478;2022-10-17T03:03:39;101209.00;;;15.10
12854;BMP180;6495;51.808;7.478;2022-10-17T03:06:09;101209.00;;;15.20
12854;BMP180;6495;51.808;7.478;2022-10-17T03:08:37;101209.00;;;15.20
12854;BMP180;6495;51.808;7.478;2022-10-17T03:11:05;101212.00;;;15.20
12854;BMP180;6495;51.808;7.478;2022-10-17T03:13:33;101209.00;;;15.20
12854;BMP180;6495;51.808;7.478;2022-10-17T03:16:06;101202.00;;;15.20
12854;BMP180;6495;51.808;7.478;2022-10-17T03:18:34;101199.00;;;15.20
12854;BMP180;6495;51.808;7.478;2022-10-17T03:21:02;101213.00;;;15.20
12854;BMP180;6495;51.808;7.478;2022-10-17T03:23:31;101202.00;;;15.30
12854;BMP180;6495;51.808;7.478;2022-10-17T03:26:02;101204.00;;;15.30
12854;BMP180;6495;51.808;7.478;2022-10-17T03:28:31;101199.00;;;15.30
12854;BMP180;6495;51.808;7.478;2022-10-17T03:30:59;101208.00;;;15.30
12854;BMP180;6495;51.808;7.478;2022-10-17T03:33:32;101212.00;;;15.30
12854;BMP180;6495;51.808;7.478;2022-10-17T03:36:05;101206.00;;;15.20
12854;BMP180;6495;51.808;7.478;2022-10-17T03:38:36;101216.00;;;15.20
12854;BMP180;6495;51.808;7.478;2022-10-17T03:41:05;101207.00;;;15.10
12854;BMP180;6495;51.808;7.478;2022-10-17T03:43:34;101211.00;;;15.10
12854;BMP180;6495;51.808;7.478;2022-10-17T03:46:02;101213.00;;;15.10
12854;BMP180;6495;51.808;7.478;2022-10-17T03:48:31;101226.00;;;15.10
12854;BMP180;6495;51.808;7.478;2022-10-17T03:51:00;101223.00;;;15.10
12854;BMP180;6495;51.808;7.478;2022-10-17T03:53:29;101224.00;;;15.10
12854;BMP180;6495;51.808;7.478;2022-10-17T03:56:09;101220.00;;;15.10
12854;BMP180;6495;51.808;7.478;2022-10-17T03:58:37;101225.00;;;15.10
12854;BMP180;6495;51.808;7.478;2022-10-17T04:01:09;101211.00;;;15.10
12854;BMP180;6495;51.808;7.478;2022-10-17T04:03:38;101226.00;;;15.10
12854;BMP180;6495;51.808;7.478;2022-10-17T04:06:07;101233.00;;;15.10
12854;BMP180;6495;51.808;7.478;2022-10-17T04:08:35;101230.00;;;15.10
12854;BMP180;6495;51.808;7.478;2022-10-17T04:11:06;101231.00;;;15.10
12854;BMP180;6495;51.808;7.478;2022-10-17T04:13:35;101241.00;;;15.10
12854;BMP180;6495;51.808;7.478;2022-10-17T04:16:06;101233.00;;;15.10
12854;BMP180;6495;51.808;7.478;2022-10-17T04:18:34;101233.00;;;15.10
12854;BMP180;6495;51.808;7.478;2022-10-17T04:21:03;101236.00;;;15.10
12854;BMP180;6495;51.808;7.478;2022-10-17T04:23:32;101242.00;;;15.10
12854;BMP180;6495;51.808;7.478;2022-10-17T04:26:01;101249.00;;;15.10
12854;BMP180;6495;51.808;7.478;2022-10-17T04:28:32;101242.00;;;15.20
12854;BMP180;6495;51.808;7.478;2022-10-17T04:31:02;101246.00;;;15.10
12854;BMP180;6495;51.808;7.478;2022-10-17T04:33:31;101239.00;;;15.20
12854;BMP180;6495;51.808;7.478;2022-10-17T04:36:01;101240.00;;;15.20
12854;BMP180;6495;51.808;7.478;2022-10-17T04:38:30;101231.00;;;15.20
12854;BMP180;6495;51.808;7.478;2022-10-17T04:40:58;101230.00;;;15.20
12854;BMP180;6495;51.808;7.478;2022-10-17T04:43:28;101236.00;;;15.30
12854;BMP180;6495;51.808;7.478;2022-10-17T04:45:58;101232.00;;;15.30
12854;BMP180;6495;51.808;7.478;2022-10-17T04:48:28;101232.00;;;15.30
12854;BMP180;6495;51.808;7.478;2022-10-17T04:50:58;101227.00;;;15.30
12854;BMP180;6495;51.808;7.478;2022-10-17T04:53:28;101227.00;;;15.30
12854;BMP180;6495;51.808;7.478;2022-10-17T04:55:57;101242.00;;;15.30
12854;BMP180;6495;51.808;7.478;2022-10-17T04:58:27;101245.00;;;15.30
12854;BMP180;6495;51.808;7.478;2022-10-17T05:00:55;101239.00;;;15.40
12854;BMP180;6495;51.808;7.478;2022-10-17T05:03:25;101236.00;;;15.40
12854;BMP180;6495;51.808;7.478;2022-10-17T05:05:53;101239.00;;;15.40
12854;BMP180;6495;51.808;7.478;2022-10-17T05:08:21;101236.00;;;15.40
12854;BMP180;6495;51.808;7.478;2022-10-17T05:10:49;101239.00;;;15.30
12854;BMP180;6495;51.808;7.478;2022-10-17T05:13:17;101240.00;;;15.30
12854;BMP180;6495;51.808;7.478;2022-10-17T05:15:45;101242.00;;;15.30
12854;BMP180;6495;51.808;7.478;2022-10-17T05:18:13;101246.00;;;15.30
12854;BMP180;6495;51.808;7.478;2022-10-17T05:20:42;101247.00;;;15.30
12854;BMP180;6495;51.808;7.478;2022-10-17T05:23:10;101250.00;;;15.30
12854;BMP180;6495;51.808;7.478;2022-10-17T05:25:38;101248.00;;;15.30
12854;BMP180;6495;51.808;7.478;2022-10-17T05:28:06;101246.00;;;15.30
12854;BMP180;6495;51.808;7.478;2022-10-17T05:30:34;101254.00;;;15.30
12854;BMP180;6495;51.808;7.478;2022-10-17T05:33:03;101249.00;;;15.30
12854;BMP180;6495;51.808;7.478;2022-10-17T05:35:31;101260.00;;;15.30
12854;BMP180;6495;51.808;7.478;2022-10-17T05:38:01;101260.00;;;15.30
12854;BMP180;6495;51.808;7.478;2022-10-17T05:40:29;101257.00;;;15.30
12854;BMP180;6495;51.808;7.478;2022-10-17T05:42:57;101272.00;;;15.40
12854;BMP180;6495;51.808;7.478;2022-10-17T05:45:25;101268.00;;;15.40
12854;BMP180;6495;51.808;7.478;2022-10-17T05:47:53;101264.00;;;15.40
12854;BMP180;6495;51.808;7.478;2022-10-17T05:50:21;101268.00;;;15.40
12854;BMP180;6495;51.808;7.478;2022-10-17T05:52:52;101264.00;;;15.40
12854;BMP180;6495;51.808;7.478;2022-10-17T05:55:22;101277.00;;;15.50
12854;BMP180;6495;51.808;7.478;2022-10-17T05:57:50;101285.00;;;15.50
12854;BMP180;6495;51.808;7.478;2022-10-17T06:00:20;101286.00;;;15.50
12854;BMP180;6495;51.808;7.478;2022-10-17T06:02:48;101284.00;;;15.60
12854;BMP180;6495;51.808;7.478;2022-10-17T06:05:17;101276.00;;;15.50
12854;BMP180;6495;51.808;7.478;2022-10-17T06:07:45;101287.00;;;15.50
12854;BMP180;6495;51.808;7.478;2022-10-17T06:10:15;101292.00;;;15.50
12854;BMP180;6495;51.808;7.478;2022-10-17T06:12:45;101298.00;;;15.50
12854;BMP180;6495;51.808;7.478;2022-10-17T06:15:13;101300.00;;;15.50
12854;BMP180;6495;51.808;7.478;2022-10-17T06:17:41;101294.00;;;15.50
12854;BMP180;6495;51.808;7.478;2022-10-17T06:20:09;101294.00;;;15.50
12854;BMP180;6495;51.808;7.478;2022-10-17T06:22:38;101306.00;;;15.60
12854;BMP180;6495;51.808;7.478;2022-10-17T06:25:07;101306.00;;;15.50
12854;BMP180;6495;51.808;7.478;2022-10-17T06:27:35;101306.00;;;15.50
12854;BMP180;6495;51.808;7.478;2022-10-17T06:30:05;101314.00;;;15.50
12854;BMP180;6495;51.808;7.478;2022-10-17T06:32:34;101315.00;;;15.50
12854;BMP180;6495;51.808;7.478;2022-10-17T06:35:02;101315.00;;;15.50
12854;BMP180;6495;51.808;7.478;2022-10-17T06:37:31;101331.00;;;15.40
12854;BMP180;6495;51.808;7.478;2022-10-17T06:40:03;101332.00;;;15.40
12854;BMP180;6495;51.808;7.478;2022-10-17T06:42:33;101331.00;;;15.50
12854;BMP180;6495;51.808;7.478;2022-10-17T06:45:02;101338.00;;;15.50
12854;BMP180;6495;51.808;7.478;2022-10-17T06:47:31;101345.00;;;15.50
12854;BMP180;6495;51.808;7.478;2022-10-17T06:49:59;101341.00;;;15.50
12854;BMP180;6495;51.808;7.478;2022-10-17T06:52:27;101345.00;;;15.50
12854;BMP180;6495;51.808;7.478;2022-10-17T06:54:55;101351.00;;;15.50
12854;BMP180;6495;51.808;7.478;2022-10-17T06:57:23;101349.00;;;15.50
12854;BMP180;6495;51.808;7.478;2022-10-17T06:59:51;101344.00;;;15.50
12854;BMP180;6495;51.808;7.478;2022-10-17T07:02:21;101342.00;;;15.50
12854;BMP180;6495;51.808;7.478;2022-10-17T07:04:51;101348.00;;;15.60
12854;BMP180;6495;51.808;7.478;2022-10-17T07:07:19;101345.00;;;15.60
12854;BMP180;6495;51.808;7.478;2022-10-17T07:09:47;101338.00;;;15.60
12854;BMP180;6495;51.808;7.478;2022-10-17T07:12:15;101342.00;;;15.70
12854;BMP180;6495;51.808;7.478;2022-10-17T07:14:43;101336.00;;;15.70
12854;BMP180;6495;51.808;7.478;2022-10-17T07:17:13;101344.00;;;15.80
12854;BMP180;6495;51.808;7.478;2022-10-17T07:19:43;101362.00;;;15.80
12854;BMP180;6495;51.808;7.478;2022-10-17T07:22:13;101369.00;;;15.80
12854;BMP180;6495;51.808;7.478;2022-10-17T07:24:41;101371.00;;;15.80
12854;BMP180;6495;51.808;7.478;2022-10-17T07:27:09;101369.00;;;15.90
12854;BMP180;6495;51.808;7.478;2022-10-17T07:29:37;101369.00;;;15.90
12854;BMP180;6495;51.808;7.478;2022-10-17T07:32:05;101376.00;;;15.90
12854;BMP180;6495;51.808;7.478;2022-10-17T07:34:34;101367.00;;;16.00
12854;BMP180;6495;51.808;7.478;2022-10-17T07:37:03;101373.00;;;16.00
12854;BMP180;6495;51.808;7.478;2022-10-17T07:39:34;101372.00;;;16.10
12854;BMP180;6495;51.808;7.478;2022-10-17T07:42:03;101371.00;;;16.10
12854;BMP180;6495;51.808;7.478;2022-10-17T07:44:33;101373.00;;;16.20
12854;BMP180;6495;51.808;7.478;2022-10-17T07:47:01;101363.00;;;16.20
12854;BMP180;6495;51.808;7.478;2022-10-17T07:49:30;101368.00;;;16.20
12854;BMP180;6495;51.808;7.478;2022-10-17T07:51:58;101370.00;;;16.30
12854;BMP180;6495;51.808;7.478;2022-10-17T07:54:26;101355.00;;;16.30
12854;BMP180;6495;51.808;7.478;2022-10-17T07:56:55;101361.00;;;16.40
12854;BMP180;6495;51.808;7.478;2022-10-17T07:59:23;101360.00;;;16.50
12854;BMP180;6495;51.808;7.478;2022-10-17T08:01:54;101347.00;;;16.50
12854;BMP180;6495;51.808;7.478;2022-10-17T08:04:22;101351.00;;;16.60
12854;BMP180;6495;51.808;7.478;2022-10-17T08:06:50;101361.00;;;16.70
12854;BMP180;6495;51.808;7.478;2022-10-17T08:09:26;101357.00;;;16.90
12854;BMP180;6495;51.808;7.478;2022-10-17T08:11:55;101357.00;;;17.00
12854;BMP180;6495;51.808;7.478;2022-10-17T08:14:23;101366.00;;;17.10
12854;BMP180;6495;51.808;7.478;2022-10-17T08:16:53;101375.00;;;17.30
12854;BMP180;6495;51.808;7.478;2022-10-17T08:19:21;101370.00;;;17.40
12854;BMP180;6495;51.808;7.478;2022-10-17T08:21:50;101373.00;;;17.50
12854;BMP180;6495;51.808;7.478;2022-10-17T08:24:20;101377.00;;;17.60
12854;BMP180;6495;51.808;7.478;2022-10-17T08:26:48;101369.00;;;17.70
12854;BMP180;6495;51.808;7.478;2022-10-17T08:29:19;101368.00;;;17.80
12854;BMP180;6495;51.808;7.478;2022-10-17T08:31:47;101368.00;;;17.80
12854;BMP180;6495;51.808;7.478;2022-10-17T08:34:22;101366.00;;;17.90
12854;BMP180;6495;51.808;7.478;2022-10-17T08:36:50;101376.00;;;18.00
12854;BMP180;6495;51.808;7.478;2022-10-17T08:39:18;101371.00;;;18.10
12854;BMP180;6495;51.808;7.478;2022-10-17T08:42:01;101381.00;;;18.20
12854;BMP180;6495;51.808;7.478;2022-10-17T08:44:44;101378.00;;;18.40
12854;BMP180;6495;51.808;7.478;2022-10-17T08:47:25;101389.00;;;18.50
12854;BMP180;6495;51.808;7.478;2022-10-17T08:49:59;101392.00;;;18.60
12854;BMP180;6495;51.808;7.478;2022-10-17T08:52:35;101393.00;;;18.70
12854;BMP180;6495;51.808;7.478;2022-10-17T08:55:14;101394.00;;;18.80
12854;BMP180;6495;51.808;7.478;2022-10-17T08:57:43;101396.00;;;18.90
12854;BMP180;6495;51.808;7.478;2022-10-17T09:00:18;101398.00;;;19.10
12854;BMP180;6495;51.808;7.478;2022-10-17T09:03:07;101402.00;;;19.20
12854;BMP180;6495;51.808;7.478;2022-10-17T09:05:49;101392.00;;;19.30
12854;BMP180;6495;51.808;7.478;2022-10-17T09:08:37;101396.00;;;19.40
12854;BMP180;6495;51.808;7.478;2022-10-17T09:11:22;101406.00;;;19.40
12854;BMP180;6495;51.808;7.478;2022-10-17T09:14:04;101422.00;;;19.50
12854;BMP180;6495;51.808;7.478;2022-10-17T09:17:07;101416.00;;;19.50
12854;BMP180;6495;51.808;7.478;2022-10-17T09:19:43;101411.00;;;19.50
12854;BMP180;6495;51.808;7.478;2022-10-17T09:22:18;101404.00;;;19.50
12854;BMP180;6495;51.808;7.478;2022-10-17T09:24:53;101401.00;;;19.60
12854;BMP180;6495;51.808;7.478;2022-10-17T09:27:26;101398.00;;;19.70
12854;BMP180;6495;51.808;7.478;2022-10-17T09:30:34;101404.00;;;19.80
12854;BMP180;6495;51.808;7.478;2022-10-17T09:33:15;101404.00;;;19.90
12854;BMP180;6495;51.808;7.478;2022-10-17T09:36:07;101427.00;;;20.00
12854;BMP180;6495;51.808;7.478;2022-10-17T09:38:40;101431.00;;;20.00
12854;BMP180;6495;51.808;7.478;2022-10-17T09:41:18;101435.00;;;20.10
12854;BMP180;6495;51.808;7.478;2022-10-17T09:44:18;101443.00;;;20.10
12854;BMP180;6495;51.808;7.478;2022-10-17T09:47:01;101448.00;;;20.10
12854;BMP180;6495;51.808;7.478;2022-10-17T09:49:36;101454.00;;;20.20
12854;BMP180;6495;51.808;7.478;2022-10-17T09:52:10;101458.00;;;20.20
12854;BMP180;6495;51.808;7.478;2022-10-17T09:54:45;101451.00;;;20.30
12854;BMP180;6495;51.808;7.478;2022-10-17T09:57:16;101460.00;;;20.40
12854;BMP180;6495;51.808;7.478;2022-10-17T09:59:54;101470.00;;;20.40
12854;BMP180;6495;51.808;7.478;2022-10-17T10:02:25;101474.00;;;20.50
12854;BMP180;6495;51.808;7.478;2022-10-17T10:04:59;101480.00;;;20.60
12854;BMP180;6495;51.808;7.478;2022-10-17T10:07:35;101496.00;;;20.60
12854;BMP180;6495;51.808;7.478;2022-10-17T10:10:07;101502.00;;;20.80
12854;BMP180;6495;51.808;7.478;2022-10-17T10:12:38;101496.00;;;20.80
12854;BMP180;6495;51.808;7.478;2022-10-17T10:15:34;101497.00;;;20.90
12854;BMP180;6495;51.808;7.478;2022-10-17T10:18:27;101495.00;;;21.00
12854;BMP180;6495;51.808;7.478;2022-10-17T10:21:08;101514.00;;;21.10
12854;BMP180;6495;51.808;7.478;2022-10-17T10:23:39;101514.00;;;21.10
12854;BMP180;6495;51.808;7.478;2022-10-17T10:26:34;101522.00;;;21.20
12854;BMP180;6495;51.808;7.478;2022-10-17T10:29:20;101534.00;;;21.20
12854;BMP180;6495;51.808;7.478;2022-10-17T10:31:50;101530.00;;;21.10
12854;BMP180;6495;51.808;7.478;2022-10-17T10:34:23;101532.00;;;21.10
12854;BMP180;6495;51.808;7.478;2022-10-17T10:36:59;101527.00;;;21.10
12854;BMP180;6495;51.808;7.478;2022-10-17T10:39:42;101541.00;;;21.20
12854;BMP180;6495;51.808;7.478;2022-10-17T10:42:24;101552.00;;;21.20
12854;BMP180;6495;51.808;7.478;2022-10-17T10:44:57;101558.00;;;21.20
12854;BMP180;6495;51.808;7.478;2022-10-17T10:47:27;101561.00;;;21.20
12854;BMP180;6495;51.808;7.478;2022-10-17T10:50:27;101553.00;;;21.30
12854;BMP180;6495;51.808;7.478;2022-10-17T10:53:19;101552.00;;;21.20
12854;BMP180;6495;51.808;7.478;2022-10-17T10:55:55;101558.00;;;21.20
12854;BMP180;6495;51.808;7.478;2022-10-17T10:58:38;101568.00;;;21.20
12854;BMP180;6495;51.808;7.478;2022-10-17T11:01:19;101559.00;;;21.10
12854;BMP180;6495;51.808;7.478;2022-10-17T11:04:05;101571.00;;;21.10
12854;BMP180;6495;51.808;7.478;2022-10-17T11:06:40;101558.00;;;21.20
12854;BMP180;6495;51.808;7.478;2022-10-17T11:09:23;101578.00;;;21.20
12854;BMP180;6495;51.808;7.478;2022-10-17T11:12:05;101582.00;;;21.20
12854;BMP180;6495;51.808;7.478;2022-10-17T11:14:44;101587.00;;;21.20
12854;BMP180;6495;51.808;7.478;2022-10-17T11:17:29;101590.00;;;21.30
12854;BMP180;6495;51.808;7.478;2022-10-17T11:20:11;101599.00;;;21.30
12854;BMP180;6495;51.808;7.478;2022-10-17T11:22:46;101591.00;;;21.30
12854;BMP180;6495;51.808;7.478;2022-10-17T11:25:31;101599.00;;;21.40
12854;BMP180;6495;51.808;7.478;2022-10-17T11:28:00;101608.00;;;21.40
12854;BMP180;6495;51.808;7.478;2022-10-17T11:30:44;101626.00;;;21.40
12854;BMP180;6495;51.808;7.478;2022-10-17T11:33:21;101629.00;;;21.40
12854;BMP180;6495;51.808;7.478;2022-10-17T11:35:55;101622.00;;;21.40
12854;BMP180;6495;51.808;7.478;2022-10-17T11:38:38;101627.00;;;21.40
12854;BMP180;6495;51.808;7.478;2022-10-17T11:41:18;101619.00;;;21.40
12854;BMP180;6495;51.808;7.478;2022-10-17T11:43:53;101623.00;;;21.40
12854;BMP180;6495;51.808;7.478;2022-10-17T11:46:25;101616.00;;;21.40
12854;BMP180;6495;51.808;7.478;2022-10-17T11:49:05;101607.00;;;21.50
12854;BMP180;6495;51.808;7.478;2022-10-17T11:51:44;101602.00;;;21.50
12854;BMP180;6495;51.808;7.478;2022-10-17T11:54:34;101614.00;;;21.40
12854;BMP180;6495;51.808;7.478;2022-10-17T11:57:39;101605.00;;;21.40
12854;BMP180;6495;51.808;7.478;2022-10-17T12:00:26;101599.00;;;21.40
12854;BMP180;6495;51.808;7.478;2022-10-17T12:03:18;101594.00;;;21.50
12854;BMP180;6495;51.808;7.478;2022-10-17T12:06:01;101575.00;;;21.50
12854;BMP180;6495;51.808;7.478;2022-10-17T12:08:37;101590.00;;;21.50
12854;BMP180;6495;51.808;7.478;2022-10-17T12:11:13;101590.00;;;21.50
12854;BMP180;6495;51.808;7.478;2022-10-17T12:13:52;101591.00;;;21.50
12854;BMP180;6495;51.808;7.478;2022-10-17T12:16:44;101592.00;;;21.60
12854;BMP180;6495;51.808;7.478;2022-10-17T12:19:28;101595.00;;;21.60
12854;BMP180;6495;51.808;7.478;2022-10-17T12:22:18;101595.00;;;21.60
12854;BMP180;6495;51.808;7.478;2022-10-17T12:25:01;101605.00;;;21.60
12854;BMP180;6495;51.808;7.478;2022-10-17T12:27:43;101614.00;;;21.60
12854;BMP180;6495;51.808;7.478;2022-10-17T12:30:24;101613.00;;;21.70
12854;BMP180;6495;51.808;7.478;2022-10-17T12:33:04;101627.00;;;21.70
12854;BMP180;6495;51.808;7.478;2022-10-17T12:35:36;101605.00;;;21.70
12854;BMP180;6495;51.808;7.478;2022-10-17T12:38:25;101609.00;;;21.80
12854;BMP180;6495;51.808;7.478;2022-10-17T12:41:02;101627.00;;;21.80
12854;BMP180;6495;51.808;7.478;2022-10-17T12:43:55;101623.00;;;21.80
12854;BMP180;6495;51.808;7.478;2022-10-17T12:46:56;101626.00;;;21.70
12854;BMP180;6495;51.808;7.478;2022-10-17T12:49:46;101626.00;;;21.80
12854;BMP180;6495;51.808;7.478;2022-10-17T12:52:24;101616.00;;;21.70
12854;BMP180;6495;51.808;7.478;2022-10-17T12:54:59;101628.00;;;21.80
12854;BMP180;6495;51.808;7.478;2022-10-17T12:57:57;101626.00;;;21.70
12854;BMP180;6495;51.808;7.478;2022-10-17T13:00:35;101629.00;;;21.70
12854;BMP180;6495;51.808;7.478;2022-10-17T13:03:16;101627.00;;;21.70
12854;BMP180;6495;51.808;7.478;2022-10-17T13:05:49;101634.00;;;21.70
12854;BMP180;6495;51.808;7.478;2022-10-17T13:08:22;101639.00;;;21.70
12854;BMP180;6495;51.808;7.478;2022-10-17T13:10:52;101634.00;;;21.70
12854;BMP180;6495;51.808;7.478;2022-10-17T13:13:32;101650.00;;;21.70
12854;BMP180;6495;51.808;7.478;2022-10-17T13:16:03;101650.00;;;21.70
12854;BMP180;6495;51.808;7.478;2022-10-17T13:18:33;101644.00;;;21.60
12854;BMP180;6495;51.808;7.478;2022-10-17T13:21:05;101652.00;;;21.60
12854;BMP180;6495;51.808;7.478;2022-10-17T13:23:36;101656.00;;;21.60
12854;BMP180;6495;51.808;7.478;2022-10-17T13:26:12;101666.00;;;21.60
12854;BMP180;6495;51.808;7.478;2022-10-17T13:28:41;101657.00;;;21.60
12854;BMP180;6495;51.808;7.478;2022-10-17T13:31:31;101671.00;;;21.60
12854;BMP180;6495;51.808;7.478;2022-10-17T13:34:04;101669.00;;;21.60
12854;BMP180;6495;51.808;7.478;2022-10-17T13:36:34;101660.00;;;21.50
12854;BMP180;6495;51.808;7.478;2022-10-17T13:39:07;101670.00;;;21.50
12854;BMP180;6495;51.808;7.478;2022-10-17T13:41:39;101684.00;;;21.50
12854;BMP180;6495;51.808;7.478;2022-10-17T13:44:13;101687.00;;;21.40
12854;BMP180;6495;51.808;7.478;2022-10-17T13:46:42;101686.00;;;21.40
12854;BMP180;6495;51.808;7.478;2022-10-17T13:49:22;101691.00;;;21.40
12854;BMP180;6495;51.808;7.478;2022-10-17T13:51:55;101692.00;;;21.40
12854;BMP180;6495;51.808;7.478;2022-10-17T13:54:37;101694.00;;;21.40
12854;BMP180;6495;51.808;7.478;2022-10-17T13:57:20;101696.00;;;21.40
12854;BMP180;6495;51.808;7.478;2022-10-17T13:59:51;101698.00;;;21.30
12854;BMP180;6495;51.808;7.478;2022-10-17T14:02:23;101691.00;;;21.30
12854;BMP180;6495;51.808;7.478;2022-10-17T14:05:02;101688.00;;;21.30
12854;BMP180;6495;51.808;7.478;2022-10-17T14:07:52;101685.00;;;21.20
12854;BMP180;6495;51.808;7.478;2022-10-17T14:10:42;101695.00;;;21.20
12854;BMP180;6495;51.808;7.478;2022-10-17T14:13:20;101691.00;;;21.20
12854;BMP180;6495;51.808;7.478;2022-10-17T14:15:53;101695.00;;;21.10
12854;BMP180;6495;51.808;7.478;2022-10-17T14:18:27;101700.00;;;21.10
12854;BMP180;6495;51.808;7.478;2022-10-17T14:21:05;101700.00;;;21.10
12854;BMP180;6495;51.808;7.478;2022-10-17T14:24:15;101699.00;;;21.10
12854;BMP180;6495;51.808;7.478;2022-10-17T14:26:49;101707.00;;;21.10
12854;BMP180;6495;51.808;7.478;2022-10-17T14:29:23;101711.00;;;21.10
12854;BMP180;6495;51.808;7.478;2022-10-17T14:31:59;101714.00;;;21.10
12854;BMP180;6495;51.808;7.478;2022-10-17T14:34:32;101722.00;;;21.10
12854;BMP180;6495;51.808;7.478;2022-10-17T14:37:08;101709.00;;;21.00
12854;BMP180;6495;51.808;7.478;2022-10-17T14:39:37;101727.00;;;21.00
12854;BMP180;6495;51.808;7.478;2022-10-17T14:42:06;101723.00;;;21.00
12854;BMP180;6495;51.808;7.478;2022-10-17T14:44:35;101719.00;;;21.00
12854;BMP180;6495;51.808;7.478;2022-10-17T14:47:05;101718.00;;;21.00
12854;BMP180;6495;51.808;7.478;2022-10-17T14:50:06;101728.00;;;21.00
12854;BMP180;6495;51.808;7.478;2022-10-17T14:52:36;101726.00;;;21.00
12854;BMP180;6495;51.808;7.478;2022-10-17T14:55:22;101730.00;;;21.00